createdAt,value
2023-05-20T00:02:57.687Z,98674.38
2023-05-20T00:06:00.448Z,98678.84
2023-05-20T00:09:03.807Z,98677.59
2023-05-20T00:12:07.669Z,98674.03
2023-05-20T00:15:13.024Z,98678.84
2023-05-20T00:18:15.581Z,98665.03
2023-05-20T00:21:18.329Z,98668.72
2023-05-20T00:24:20.954Z,98675.56
2023-05-20T00:27:23.897Z,98668.72
2023-05-20T00:30:27.860Z,98670.69
2023-05-20T00:33:30.728Z,98655.00
2023-05-20T00:36:33.308Z,98660.16
2023-05-20T00:39:36.282Z,98665.63
2023-05-20T00:42:39.269Z,98666.56
2023-05-20T00:45:43.206Z,98669.88
2023-05-20T00:48:45.893Z,98664.84
2023-05-20T00:51:48.600Z,98657.78
2023-05-20T00:54:51.848Z,98667.41
2023-05-20T00:57:55.114Z,98658.81
2023-05-20T01:00:59.338Z,98658.94
2023-05-20T01:04:02.046Z,98644.75
2023-05-20T01:07:05.744Z,98653.22
2023-05-20T01:10:09.624Z,98653.44
2023-05-20T01:13:16.231Z,98660.47
2023-05-20T01:16:21.564Z,98659.19
2023-05-20T01:19:34.058Z,98651.66
2023-05-20T01:22:39.344Z,98650.16
2023-05-20T01:25:42.446Z,98647.19
2023-05-20T01:28:45.112Z,98648.34
2023-05-20T01:31:48.445Z,98641.09
2023-05-20T01:34:52.257Z,98636.41
2023-05-20T01:37:57.411Z,98640.41
2023-05-20T01:41:00.714Z,98634.47
2023-05-20T01:44:03.745Z,98629.78
2023-05-20T01:47:06.601Z,98634.91
2023-05-20T01:50:10.185Z,98632.44
2023-05-20T01:53:14.090Z,98629.19
2023-05-20T01:56:16.859Z,98628.88
2023-05-20T01:59:19.673Z,98630.34
2023-05-20T02:02:22.289Z,98629.91
2023-05-20T02:05:25.079Z,98635.28
2023-05-20T02:08:29.161Z,98633.34
2023-05-20T02:11:31.907Z,98630.25
2023-05-20T02:14:34.532Z,98624.50
2023-05-20T02:17:37.293Z,98624.16
2023-05-20T02:20:41.138Z,98621.97
2023-05-20T02:23:45.190Z,98627.22
2023-05-20T02:26:49.336Z,98624.69
2023-05-20T02:29:52.010Z,98624.22
2023-05-20T02:32:54.780Z,98628.22
2023-05-20T02:35:57.808Z,98623.50
2023-05-20T02:39:01.759Z,98628.50
2023-05-20T02:42:05.216Z,98634.53
2023-05-20T02:45:10.133Z,98624.72
2023-05-20T02:48:12.806Z,98627.00
2023-05-20T02:51:15.365Z,98622.88
2023-05-20T02:54:19.346Z,98627.16
2023-05-20T02:57:22.004Z,98624.78
2023-05-20T03:00:24.642Z,98628.75
2023-05-20T03:03:27.644Z,98633.00
2023-05-20T03:06:31.768Z,98636.25
2023-05-20T03:09:35.846Z,98633.38
2023-05-20T03:12:38.451Z,98627.56
2023-05-20T03:15:41.275Z,98632.25
2023-05-20T03:18:43.885Z,98626.44
2023-05-20T03:21:46.638Z,98624.97
2023-05-20T03:24:52.740Z,98634.66
2023-05-20T03:27:55.502Z,98626.78
2023-05-20T03:30:58.056Z,98632.63
2023-05-20T03:34:00.729Z,98624.81
2023-05-20T03:37:03.358Z,98626.00
2023-05-20T03:40:10.338Z,98621.72
2023-05-20T03:43:13.063Z,98636.91
2023-05-20T03:46:15.715Z,98640.38
2023-05-20T03:49:18.402Z,98643.19
2023-05-20T03:52:21.308Z,98638.72
2023-05-20T03:55:25.953Z,98639.81
2023-05-20T03:58:29.767Z,98635.84
2023-05-20T04:01:32.357Z,98640.06
2023-05-20T04:04:35.013Z,98630.34
2023-05-20T04:07:37.800Z,98632.50
2023-05-20T04:10:43.737Z,98630.78
2023-05-20T04:13:46.345Z,98637.09
2023-05-20T04:16:50.173Z,98632.81
2023-05-20T04:19:53.032Z,98638.53
2023-05-20T04:22:56.119Z,98627.22
2023-05-20T04:26:02.663Z,98629.88
2023-05-20T04:29:05.611Z,98623.81
2023-05-20T04:32:10.925Z,98622.09
2023-05-20T04:35:13.876Z,98622.31
2023-05-20T04:38:16.858Z,98614.47
2023-05-20T04:41:20.810Z,98610.69
2023-05-20T04:44:24.711Z,98609.09
2023-05-20T04:47:27.416Z,98616.41
2023-05-20T04:50:30.235Z,98619.94
2023-05-20T04:53:33.902Z,98612.69
2023-05-20T04:56:38.228Z,98612.78
2023-05-20T04:59:40.794Z,98621.25
2023-05-20T05:02:43.734Z,98616.41
2023-05-20T05:05:46.486Z,98620.56
2023-05-20T05:08:49.069Z,98620.44
2023-05-20T05:11:53.070Z,98617.72
2023-05-20T05:14:55.971Z,98611.25
2023-05-20T05:17:58.902Z,98619.69
2023-05-20T05:21:02.876Z,98610.41
2023-05-20T05:24:05.620Z,98605.41
2023-05-20T05:27:09.566Z,98606.84
2023-05-20T05:30:12.490Z,98603.31
2023-05-20T05:33:15.594Z,98598.31
2023-05-20T05:36:18.521Z,98601.03
2023-05-20T05:39:21.084Z,98600.22
2023-05-20T05:42:24.953Z,98587.03
2023-05-20T05:45:27.703Z,98589.75
2023-05-20T05:48:30.428Z,98586.53
2023-05-20T05:51:33.024Z,98591.53
2023-05-20T05:54:35.906Z,98582.72
2023-05-20T05:57:40.047Z,98584.88
2023-05-20T06:00:42.683Z,98587.78
2023-05-20T06:03:45.530Z,98594.59
2023-05-20T06:06:49.405Z,98585.56
2023-05-20T06:09:52.028Z,98585.75
2023-05-20T06:12:56.096Z,98584.47
2023-05-20T06:15:58.925Z,98582.19
2023-05-20T06:19:03.489Z,98577.69
2023-05-20T06:22:06.357Z,98573.81
2023-05-20T06:25:10.432Z,98568.59
2023-05-20T06:28:14.500Z,98582.78
2023-05-20T06:31:17.233Z,98565.06
2023-05-20T06:34:19.934Z,98565.34
2023-05-20T06:37:24.378Z,98568.28
2023-05-20T06:40:27.537Z,98569.94
2023-05-20T06:43:31.819Z,98572.00
2023-05-20T06:46:34.552Z,98562.41
2023-05-20T06:49:37.249Z,98559.91
2023-05-20T06:52:39.849Z,98561.22
2023-05-20T06:55:42.548Z,98558.41
2023-05-20T06:58:46.598Z,98557.72
2023-05-20T07:01:49.230Z,98553.78
2023-05-20T07:04:51.889Z,98548.56
2023-05-20T07:07:54.596Z,98544.09
2023-05-20T07:10:57.489Z,98541.19
2023-05-20T07:14:03.499Z,98539.75
2023-05-20T07:17:07.103Z,98543.13
2023-05-20T07:20:10.269Z,98531.94
2023-05-20T07:23:14.466Z,98528.34
2023-05-20T07:26:18.385Z,98524.06
2023-05-20T07:29:22.536Z,98517.78
2023-05-20T07:32:25.309Z,98528.75
2023-05-20T07:35:27.842Z,98524.59
2023-05-20T07:38:30.613Z,98529.72
2023-05-20T07:41:33.209Z,98532.84
2023-05-20T07:44:37.420Z,98525.88
2023-05-20T07:47:39.965Z,98515.50
2023-05-20T07:50:42.651Z,98518.00
2023-05-20T07:53:45.469Z,98510.72
2023-05-20T07:56:48.190Z,98507.53
2023-05-20T07:59:52.180Z,98502.56
2023-05-20T08:02:55.095Z,98499.38
2023-05-20T08:05:58.091Z,98497.78
2023-05-20T08:09:01.427Z,98502.59
2023-05-20T08:12:04.238Z,98498.19
2023-05-20T08:15:09.437Z,98493.44
2023-05-20T08:18:12.030Z,98495.84
2023-05-20T08:21:15.893Z,98515.31
2023-05-20T08:24:18.699Z,98520.84
2023-05-20T08:27:21.472Z,98517.59
2023-05-20T08:30:25.934Z,98516.38
2023-05-20T08:33:28.670Z,98523.47
2023-05-20T08:36:31.533Z,98517.53
2023-05-20T08:39:34.951Z,98520.59
2023-05-20T08:42:37.691Z,98513.50
2023-05-20T08:45:41.544Z,98519.75
2023-05-20T08:48:44.555Z,98512.69
2023-05-20T08:51:48.295Z,98508.91
2023-05-20T08:54:51.614Z,98515.47
2023-05-20T08:57:54.814Z,98509.19
2023-05-20T09:00:58.842Z,98507.38
2023-05-20T09:04:02.777Z,98503.94
2023-05-20T09:07:05.958Z,98496.72
2023-05-20T09:10:09.606Z,98501.97
2023-05-20T09:13:12.632Z,98498.13
2023-05-20T09:16:17.058Z,98492.25
2023-05-20T09:19:24.227Z,98492.38
2023-05-20T09:22:28.437Z,98489.31
2023-05-20T09:25:31.546Z,98493.59
2023-05-20T09:28:36.045Z,98494.88
2023-05-20T09:31:40.434Z,98486.88
2023-05-20T09:34:43.390Z,98479.59
2023-05-20T09:37:47.894Z,98486.91
2023-05-20T09:40:50.713Z,98486.09
2023-05-20T09:43:53.832Z,98480.66
2023-05-20T09:46:59.127Z,98487.81
2023-05-20T09:50:03.947Z,98477.56
2023-05-20T09:53:07.535Z,98482.06
2023-05-20T09:56:10.294Z,98472.38
2023-05-20T09:59:13.746Z,98476.25
2023-05-20T10:02:17.778Z,98464.00
2023-05-20T10:05:24.106Z,98459.16
2023-05-20T10:08:39.258Z,98453.16
2023-05-20T10:11:57.382Z,98446.44
2023-05-20T10:15:08.179Z,98450.19
2023-05-20T10:18:17.358Z,98440.59
2023-05-20T10:21:24.473Z,98426.63
2023-05-20T10:24:31.235Z,98430.72
2023-05-20T10:27:43.802Z,98431.97
2023-05-20T10:30:51.029Z,98439.41
2023-05-20T10:33:56.058Z,98433.31
2023-05-20T10:36:59.568Z,98435.00
2023-05-20T10:40:08.366Z,98423.41
2023-05-20T10:43:12.402Z,98418.28
2023-05-20T10:46:31.165Z,98421.63
2023-05-20T10:49:42.117Z,98421.13
2023-05-20T10:52:44.749Z,98417.94
2023-05-20T10:55:53.013Z,98405.44
2023-05-20T10:58:56.426Z,98404.00
2023-05-20T11:01:59.300Z,98404.63
2023-05-20T11:05:04.442Z,98403.88
2023-05-20T11:08:16.927Z,98393.09
2023-05-20T11:11:30.167Z,98378.19
2023-05-20T11:14:32.806Z,98383.34
2023-05-20T11:17:35.401Z,98379.66
2023-05-20T11:20:39.451Z,98371.75
2023-05-20T11:23:42.579Z,98376.34
2023-05-20T11:26:46.003Z,98370.47
2023-05-20T11:29:50.895Z,98369.50
2023-05-20T11:33:00.813Z,98363.97
2023-05-20T11:36:08.753Z,98358.00
2023-05-20T11:39:19.837Z,98355.97
2023-05-20T11:42:22.740Z,98357.19
2023-05-20T11:45:25.671Z,98353.28
2023-05-20T11:48:28.413Z,98348.22
2023-05-20T11:51:32.267Z,98342.34
2023-05-20T11:54:36.627Z,98341.88
2023-05-20T11:57:39.568Z,98341.72
2023-05-20T12:00:51.326Z,98334.47
2023-05-20T12:03:57.788Z,98338.69
2023-05-20T12:07:03.983Z,98343.03
2023-05-20T12:10:08.282Z,98338.84
2023-05-20T12:13:12.956Z,98332.06
2023-05-20T12:16:15.638Z,98331.69
2023-05-20T12:19:18.276Z,98325.97
2023-05-20T12:22:22.482Z,98318.06
2023-05-20T12:25:25.954Z,98307.44
2023-05-20T12:28:28.726Z,98304.09
2023-05-20T12:31:34.475Z,98297.69
2023-05-20T12:34:38.016Z,98302.22
2023-05-20T12:37:42.790Z,98294.03
2023-05-20T12:40:45.465Z,98301.28
2023-05-20T12:43:48.308Z,98294.72
2023-05-20T12:46:51.069Z,98311.50
2023-05-20T12:49:54.168Z,98301.34
2023-05-20T12:52:58.114Z,98305.38
2023-05-20T12:56:01.020Z,98304.50
2023-05-20T12:59:03.773Z,98286.94
2023-05-20T13:02:06.711Z,98284.31
2023-05-20T13:05:10.076Z,98282.25
2023-05-20T13:08:14.812Z,98285.50
2023-05-20T13:11:17.840Z,98293.53
2023-05-20T13:14:21.577Z,98278.84
2023-05-20T13:17:24.610Z,98284.19
2023-05-20T13:20:27.142Z,98280.56
2023-05-20T13:23:31.071Z,98269.94
2023-05-20T13:26:33.920Z,98264.75
2023-05-20T13:29:36.605Z,98265.72
2023-05-20T13:32:39.194Z,98267.91
2023-05-20T13:35:41.624Z,98265.88
2023-05-20T13:38:45.522Z,98266.44
2023-05-20T13:41:48.188Z,98265.25
2023-05-20T13:44:50.919Z,98259.69
2023-05-20T13:47:53.689Z,98249.41
2023-05-20T13:50:56.287Z,98239.13
2023-05-20T13:54:00.178Z,98241.13
2023-05-20T13:57:03.114Z,98236.25
2023-05-20T14:00:07.168Z,98229.31
2023-05-20T14:03:10.387Z,98221.03
2023-05-20T14:06:14.942Z,98215.66
2023-05-20T14:09:19.029Z,98211.75
2023-05-20T14:12:22.974Z,98205.91
2023-05-20T14:15:25.910Z,98209.41
2023-05-20T14:18:28.588Z,98199.72
2023-05-20T14:21:31.666Z,98198.91
2023-05-20T14:24:35.593Z,98198.94
2023-05-20T14:27:38.755Z,98193.19
2023-05-20T14:30:41.423Z,98200.38
2023-05-20T14:33:44.297Z,98197.41
2023-05-20T14:36:47.018Z,98189.97
2023-05-20T14:39:50.921Z,98185.91
2023-05-20T14:42:53.614Z,98182.56
2023-05-20T14:45:56.206Z,98183.09
2023-05-20T14:48:58.713Z,98182.53
2023-05-20T14:52:01.729Z,98180.97
2023-05-20T14:55:06.441Z,98185.22
2023-05-20T14:58:09.099Z,98181.78
2023-05-20T15:01:11.794Z,98181.31
2023-05-20T15:04:14.481Z,98177.34
2023-05-20T15:07:17.127Z,98186.38
2023-05-20T15:10:21.092Z,98182.66
2023-05-20T15:13:23.704Z,98180.81
2023-05-20T15:16:26.393Z,98182.69
2023-05-20T15:19:29.057Z,98182.81
2023-05-20T15:22:31.970Z,98183.53
2023-05-20T15:25:36.020Z,98189.50
2023-05-20T15:28:38.968Z,98179.16
2023-05-20T15:31:41.524Z,98183.53
2023-05-20T15:34:44.106Z,98180.78
2023-05-20T15:37:46.469Z,98178.59
2023-05-20T15:40:50.815Z,98187.44
2023-05-20T15:43:53.399Z,98187.09
2023-05-20T15:46:55.875Z,98197.06
2023-05-20T15:49:58.969Z,98186.72
2023-05-20T15:53:01.611Z,98192.88
2023-05-20T15:56:06.210Z,98196.25
2023-05-20T15:59:08.832Z,98188.75
2023-05-20T16:02:11.434Z,98181.91
2023-05-20T16:05:14.142Z,98176.69
2023-05-20T16:08:16.676Z,98180.72
2023-05-20T16:11:21.236Z,98184.38
2023-05-20T16:14:23.813Z,98174.47
2023-05-20T16:17:26.428Z,98176.94
2023-05-20T16:20:29.145Z,98172.56
2023-05-20T16:23:31.699Z,98170.88
2023-05-20T16:26:36.036Z,98164.56
2023-05-20T16:29:39.749Z,98173.09
2023-05-20T16:32:42.427Z,98161.28
2023-05-20T16:35:45.062Z,98163.00
2023-05-20T16:38:47.598Z,98166.84
2023-05-20T16:41:51.652Z,98166.97
2023-05-20T16:44:54.243Z,98158.78
2023-05-20T16:47:57.247Z,98166.06
2023-05-20T16:50:59.886Z,98156.22
2023-05-20T16:54:02.461Z,98170.78
2023-05-20T16:57:07.635Z,98163.06
2023-05-20T17:00:11.566Z,98162.75
2023-05-20T17:03:14.257Z,98155.38
2023-05-20T17:06:17.566Z,98150.56
2023-05-20T17:09:20.166Z,98152.09
2023-05-20T17:12:23.867Z,98163.31
2023-05-20T17:15:26.734Z,98155.00
2023-05-20T17:18:29.257Z,98175.09
2023-05-20T17:21:31.863Z,98172.47
2023-05-20T17:24:35.731Z,98176.06
2023-05-20T17:27:39.621Z,98182.13
2023-05-20T17:30:42.144Z,98182.53
2023-05-20T17:33:44.832Z,98187.97
2023-05-20T17:36:47.458Z,98184.88
2023-05-20T17:39:49.970Z,98186.13
2023-05-20T17:42:53.867Z,98188.38
2023-05-20T17:45:56.481Z,98191.69
2023-05-20T17:48:59.086Z,98193.19
2023-05-20T17:52:01.984Z,98199.22
2023-05-20T17:55:04.773Z,98200.34
2023-05-20T17:58:08.685Z,98197.59
2023-05-20T18:01:11.300Z,98197.28
2023-05-20T18:04:13.876Z,98198.78
2023-05-20T18:07:17.642Z,98201.72
2023-05-20T18:10:20.229Z,98210.56
2023-05-20T18:13:24.160Z,98209.22
2023-05-20T18:16:27.386Z,98203.34
2023-05-20T18:19:30.168Z,98197.84
2023-05-20T18:22:33.002Z,98201.09
2023-05-20T18:25:35.561Z,98206.25
2023-05-20T18:28:39.461Z,98200.75
2023-05-20T18:31:43.519Z,98203.25
2023-05-20T18:34:46.722Z,98199.44
2023-05-20T18:37:49.276Z,98196.72
2023-05-20T18:40:51.903Z,98200.88
2023-05-20T18:43:56.172Z,98193.06
2023-05-20T18:46:58.687Z,98196.75
2023-05-20T18:50:01.632Z,98208.00
2023-05-20T18:53:04.287Z,98203.41
2023-05-20T18:56:07.492Z,98206.72
2023-05-20T18:59:11.420Z,98212.34
2023-05-20T19:02:15.215Z,98206.53
2023-05-20T19:05:20.388Z,98208.59
2023-05-20T19:08:23.289Z,98220.59
2023-05-20T19:11:25.913Z,98216.25
2023-05-20T19:14:29.803Z,98223.00
2023-05-20T19:17:32.444Z,98222.63
2023-05-20T19:20:35.158Z,98231.81
2023-05-20T19:23:37.724Z,98225.09
2023-05-20T19:26:40.645Z,98237.50
2023-05-20T19:29:44.477Z,98234.41
2023-05-20T19:32:47.072Z,98232.47
2023-05-20T19:35:49.624Z,98241.28
2023-05-20T19:38:52.245Z,98235.78
2023-05-20T19:41:54.940Z,98240.16
2023-05-20T19:44:58.824Z,98241.38
2023-05-20T19:48:01.609Z,98247.34
2023-05-20T19:51:04.526Z,98249.81
2023-05-20T19:54:07.236Z,98255.81
2023-05-20T19:57:09.935Z,98261.38
2023-05-20T20:00:15.392Z,98259.00
2023-05-20T20:03:18.052Z,98257.44
2023-05-20T20:06:21.244Z,98262.56
2023-05-20T20:09:23.694Z,98257.03
2023-05-20T20:12:26.498Z,98251.09
2023-05-20T20:15:31.674Z,98254.66
2023-05-20T20:18:34.260Z,98257.03
2023-05-20T20:21:36.789Z,98254.28
2023-05-20T20:24:39.321Z,98251.88
2023-05-20T20:27:43.839Z,98257.03
2023-05-20T20:30:47.719Z,98254.22
2023-05-20T20:33:50.574Z,98246.31
2023-05-20T20:36:54.703Z,98242.28
2023-05-20T20:39:57.280Z,98240.31
2023-05-20T20:43:00.845Z,98245.00
2023-05-20T20:46:06.223Z,98230.78
2023-05-20T20:49:08.813Z,98246.16
2023-05-20T20:52:12.372Z,98236.63
2023-05-20T20:55:15.060Z,98244.53
2023-05-20T20:58:17.703Z,98243.72
2023-05-20T21:01:21.624Z,98237.38
2023-05-20T21:04:25.185Z,98241.28
2023-05-20T21:07:27.763Z,98238.91
2023-05-20T21:10:30.502Z,98244.44
2023-05-20T21:13:33.077Z,98242.81
2023-05-20T21:16:36.988Z,98247.50
2023-05-20T21:19:39.596Z,98246.66
2023-05-20T21:22:42.102Z,98245.03
2023-05-20T21:25:44.801Z,98238.31
2023-05-20T21:28:47.311Z,98235.53
2023-05-20T21:31:51.169Z,98233.91
2023-05-20T21:34:54.038Z,98233.91
2023-05-20T21:37:57.510Z,98233.84
2023-05-20T21:41:01.449Z,98231.06
2023-05-20T21:44:04.251Z,98221.09
2023-05-20T21:47:08.400Z,98230.91
2023-05-20T21:50:12.176Z,98227.78
2023-05-20T21:53:14.821Z,98225.75
2023-05-20T21:56:17.442Z,98218.59
2023-05-20T21:59:19.989Z,98224.88
2023-05-20T22:02:23.968Z,98216.97
2023-05-20T22:05:27.444Z,98214.59
2023-05-20T22:08:30.783Z,98211.47
2023-05-20T22:11:33.682Z,98206.72
2023-05-20T22:14:36.211Z,98208.28
2023-05-20T22:17:40.590Z,98201.19
2023-05-20T22:20:43.298Z,98201.56
2023-05-20T22:23:45.814Z,98198.00
2023-05-20T22:26:48.369Z,98185.78
2023-05-20T22:29:50.909Z,98190.53
2023-05-20T22:32:54.953Z,98187.34
2023-05-20T22:36:00.865Z,98192.09
2023-05-20T22:39:04.861Z,98186.59
2023-05-20T22:42:07.485Z,98181.13
2023-05-20T22:45:11.249Z,98183.03
2023-05-20T22:48:15.282Z,98176.25
2023-05-20T22:51:18.555Z,98181.34
2023-05-20T22:54:21.125Z,98174.25
2023-05-20T22:57:24.827Z,98179.38
2023-05-20T23:00:27.674Z,98178.16
2023-05-20T23:03:31.519Z,98174.09
2023-05-20T23:06:38.010Z,98176.09
2023-05-20T23:09:40.592Z,98171.72
2023-05-20T23:12:43.141Z,98166.16
2023-05-20T23:15:48.069Z,98165.31
2023-05-20T23:18:52.136Z,98156.69
2023-05-20T23:21:54.684Z,98161.41
2023-05-20T23:24:57.577Z,98157.41
2023-05-20T23:28:00.202Z,98167.28
2023-05-20T23:31:02.728Z,98155.84
2023-05-20T23:34:07.278Z,98151.09
2023-05-20T23:37:10.050Z,98149.47
2023-05-20T23:40:13.161Z,98154.56
2023-05-20T23:43:15.849Z,98158.84
2023-05-20T23:46:19.138Z,98163.59
2023-05-20T23:49:26.980Z,98160.03
2023-05-20T23:52:29.540Z,98158.78
2023-05-20T23:55:32.121Z,98154.00
2023-05-20T23:58:34.771Z,98160.31
